sensor_id;sensor_type;location;lat;lon;timestamp;pressure;altitude;pressure_sealevel;temperature;humidity
80335;BME280;69653;52.674;13.574;2023-07-08T00:00:44;101289.06;;;16.73;64.29
80335;BME280;69653;52.674;13.574;2023-07-08T00:03:13;101283.06;;;16.62;63.40
80335;BME280;69653;52.674;13.574;2023-07-08T00:05:39;101272.44;;;16.47;64.05
80335;BME280;69653;52.674;13.574;2023-07-08T00:08:05;101284.63;;;16.37;64.87
80335;BME280;69653;52.674;13.574;2023-07-08T00:10:30;101272.88;;;16.23;65.04
80335;BME280;69653;52.674;13.574;2023-07-08T00:12:57;101285.59;;;16.33;65.32
80335;BME280;69653;52.674;13.574;2023-07-08T00:15:27;101272.06;;;16.23;65.25
80335;BME280;69653;52.674;13.574;2023-07-08T00:17:53;101281.66;;;16.25;65.42
80335;BME280;69653;52.674;13.574;2023-07-08T00:22:54;101272.00;;;15.97;66.59
80335;BME280;69653;52.674;13.574;2023-07-08T00:25:19;101295.56;;;16.12;66.43
80335;BME280;69653;52.674;13.574;2023-07-08T00:27:45;101276.56;;;15.93;66.90
80335;BME280;69653;52.674;13.574;2023-07-08T00:30:29;101303.19;;;16.06;67.19
80335;BME280;69653;52.674;13.574;2023-07-08T00:32:56;101297.34;;;15.99;67.72
80335;BME280;69653;52.674;13.574;2023-07-08T00:35:34;101295.66;;;15.89;67.59
80335;BME280;69653;52.674;13.574;2023-07-08T00:38:00;101264.22;;;15.60;67.38
80335;BME280;69653;52.674;13.574;2023-07-08T00:40:30;101281.09;;;15.58;68.08
80335;BME280;69653;52.674;13.574;2023-07-08T00:42:58;101301.41;;;15.71;68.48
80335;BME280;69653;52.674;13.574;2023-07-08T00:45:47;101268.81;;;15.42;68.62
80335;BME280;69653;52.674;13.574;2023-07-08T00:48:24;101298.56;;;15.53;68.44
80335;BME280;69653;52.674;13.574;2023-07-08T00:50:50;101278.19;;;15.41;68.61
80335;BME280;69653;52.674;13.574;2023-07-08T00:53:36;101299.94;;;15.65;68.08
80335;BME280;69653;52.674;13.574;2023-07-08T00:56:08;101279.16;;;15.59;67.58
80335;BME280;69653;52.674;13.574;2023-07-08T00:58:41;101288.25;;;15.59;67.65
80335;BME280;69653;52.674;13.574;2023-07-08T01:01:08;101296.81;;;15.58;67.81
80335;BME280;69653;52.674;13.574;2023-07-08T01:03:40;101274.66;;;15.40;67.46
80335;BME280;69653;52.674;13.574;2023-07-08T01:06:08;101268.06;;;15.28;67.94
80335;BME280;69653;52.674;13.574;2023-07-08T01:08:34;101275.16;;;15.20;68.83
80335;BME280;69653;52.674;13.574;2023-07-08T01:11:02;101277.91;;;15.20;68.84
80335;BME280;69653;52.674;13.574;2023-07-08T01:13:36;101280.84;;;15.24;68.57
80335;BME280;69653;52.674;13.574;2023-07-08T01:16:02;101264.06;;;15.12;68.72
80335;BME280;69653;52.674;13.574;2023-07-08T01:18:28;101263.41;;;15.06;68.90
80335;BME280;69653;52.674;13.574;2023-07-08T01:20:53;101307.94;;;15.30;68.90
80335;BME280;69653;52.674;13.574;2023-07-08T01:23:20;101267.78;;;15.07;68.87
80335;BME280;69653;52.674;13.574;2023-07-08T01:25:46;101270.03;;;15.05;68.89
80335;BME280;69653;52.674;13.574;2023-07-08T01:28:13;101278.00;;;15.07;68.72
80335;BME280;69653;52.674;13.574;2023-07-08T01:30:43;101285.91;;;15.08;68.92
80335;BME280;69653;52.674;13.574;2023-07-08T01:33:17;101254.56;;;14.95;68.67
80335;BME280;69653;52.674;13.574;2023-07-08T01:35:45;101258.63;;;14.98;68.19
80335;BME280;69653;52.674;13.574;2023-07-08T01:38:13;101288.19;;;15.06;69.54
80335;BME280;69653;52.674;13.574;2023-07-08T01:40:49;101250.25;;;14.81;69.19
80335;BME280;69653;52.674;13.574;2023-07-08T01:43:15;101250.66;;;14.74;69.36
80335;BME280;69653;52.674;13.574;2023-07-08T01:45:41;101263.66;;;14.96;69.28
80335;BME280;69653;52.674;13.574;2023-07-08T01:48:10;101251.75;;;14.87;69.90
80335;BME280;69653;52.674;13.574;2023-07-08T01:50:39;101248.19;;;14.86;69.71
80335;BME280;69653;52.674;13.574;2023-07-08T01:53:12;101230.47;;;14.79;69.26
80335;BME280;69653;52.674;13.574;2023-07-08T01:55:38;101227.84;;;14.96;68.94
80335;BME280;69653;52.674;13.574;2023-07-08T01:58:04;101236.16;;;15.04;68.41
80335;BME280;69653;52.674;13.574;2023-07-08T02:00:29;101227.97;;;14.91;69.21
80335;BME280;69653;52.674;13.574;2023-07-08T02:02:54;101240.28;;;14.93;69.19
80335;BME280;69653;52.674;13.574;2023-07-08T02:05:20;101224.13;;;14.78;69.48
80335;BME280;69653;52.674;13.574;2023-07-08T02:07:45;101235.97;;;14.79;69.35
80335;BME280;69653;52.674;13.574;2023-07-08T02:10:11;101241.81;;;14.77;70.11
80335;BME280;69653;52.674;13.574;2023-07-08T02:12:36;101235.34;;;14.82;69.56
80335;BME280;69653;52.674;13.574;2023-07-08T02:15:02;101265.88;;;15.16;68.53
80335;BME280;69653;52.674;13.574;2023-07-08T02:17:28;101233.72;;;15.03;67.73
80335;BME280;69653;52.674;13.574;2023-07-08T02:19:54;101237.72;;;14.97;67.97
80335;BME280;69653;52.674;13.574;2023-07-08T02:22:20;101232.00;;;14.85;68.80
80335;BME280;69653;52.674;13.574;2023-07-08T02:24:45;101229.34;;;14.80;69.38
80335;BME280;69653;52.674;13.574;2023-07-08T02:27:10;101233.56;;;14.77;69.43
80335;BME280;69653;52.674;13.574;2023-07-08T02:29:36;101245.59;;;14.68;70.21
80335;BME280;69653;52.674;13.574;2023-07-08T02:32:03;101253.81;;;14.81;69.37
80335;BME280;69653;52.674;13.574;2023-07-08T02:34:29;101251.75;;;14.87;68.65
80335;BME280;69653;52.674;13.574;2023-07-08T02:36:54;101255.50;;;14.91;68.90
80335;BME280;69653;52.674;13.574;2023-07-08T02:39:21;101246.34;;;14.82;69.00
80335;BME280;69653;52.674;13.574;2023-07-08T02:41:47;101244.66;;;14.72;69.63
80335;BME280;69653;52.674;13.574;2023-07-08T02:44:12;101234.03;;;15.01;68.40
80335;BME280;69653;52.674;13.574;2023-07-08T02:46:37;101238.06;;;15.26;66.47
80335;BME280;69653;52.674;13.574;2023-07-08T02:49:03;101244.25;;;15.54;64.69
80335;BME280;69653;52.674;13.574;2023-07-08T02:51:29;101261.75;;;15.49;64.97
80335;BME280;69653;52.674;13.574;2023-07-08T02:53:54;101223.56;;;15.12;65.74
80335;BME280;69653;52.674;13.574;2023-07-08T02:56:19;101240.25;;;15.07;66.27
80335;BME280;69653;52.674;13.574;2023-07-08T02:58:46;101235.72;;;14.89;67.16
80335;BME280;69653;52.674;13.574;2023-07-08T03:01:11;101244.41;;;14.82;68.00
80335;BME280;69653;52.674;13.574;2023-07-08T03:03:36;101224.13;;;14.56;68.93
80335;BME280;69653;52.674;13.574;2023-07-08T03:06:04;101220.69;;;14.50;68.90
80335;BME280;69653;52.674;13.574;2023-07-08T03:08:30;101244.94;;;14.48;69.42
80335;BME280;69653;52.674;13.574;2023-07-08T03:11:01;101257.28;;;14.51;70.20
80335;BME280;69653;52.674;13.574;2023-07-08T03:13:28;101245.19;;;14.38;70.75
80335;BME280;69653;52.674;13.574;2023-07-08T03:15:54;101231.81;;;14.32;70.69
80335;BME280;69653;52.674;13.574;2023-07-08T03:18:22;101256.50;;;14.73;69.33
80335;BME280;69653;52.674;13.574;2023-07-08T03:20:53;101251.94;;;15.66;64.17
80335;BME280;69653;52.674;13.574;2023-07-08T03:23:21;101233.25;;;16.19;61.17
80335;BME280;69653;52.674;13.574;2023-07-08T03:25:47;101261.94;;;16.92;58.88
80335;BME280;69653;52.674;13.574;2023-07-08T03:28:13;101226.53;;;16.77;57.99
80335;BME280;69653;52.674;13.574;2023-07-08T03:30:44;101258.53;;;17.04;57.79
80335;BME280;69653;52.674;13.574;2023-07-08T03:33:10;101263.53;;;17.19;57.40
80335;BME280;69653;52.674;13.574;2023-07-08T03:35:36;101245.84;;;17.03;57.52
80335;BME280;69653;52.674;13.574;2023-07-08T03:38:04;101223.28;;;16.58;58.93
80335;BME280;69653;52.674;13.574;2023-07-08T03:40:29;101223.22;;;16.23;60.34
80335;BME280;69653;52.674;13.574;2023-07-08T03:42:55;101233.38;;;15.97;61.35
80335;BME280;69653;52.674;13.574;2023-07-08T03:45:20;101214.38;;;15.87;61.66
80335;BME280;69653;52.674;13.574;2023-07-08T03:47:45;101243.94;;;15.95;61.51
80335;BME280;69653;52.674;13.574;2023-07-08T03:50:22;101241.47;;;16.93;58.39
80335;BME280;69653;52.674;13.574;2023-07-08T03:52:50;101249.41;;;17.12;57.34
80335;BME280;69653;52.674;13.574;2023-07-08T03:55:16;101245.69;;;17.08;57.30
80335;BME280;69653;52.674;13.574;2023-07-08T03:57:42;101242.25;;;17.11;57.23
80335;BME280;69653;52.674;13.574;2023-07-08T04:00:08;101246.97;;;17.02;57.21
80335;BME280;69653;52.674;13.574;2023-07-08T04:02:44;101247.81;;;16.76;58.39
80335;BME280;69653;52.674;13.574;2023-07-08T04:05:18;101231.22;;;16.68;58.11
80335;BME280;69653;52.674;13.574;2023-07-08T04:07:45;101273.97;;;16.87;58.38
80335;BME280;69653;52.674;13.574;2023-07-08T04:10:10;101250.22;;;16.61;58.65
80335;BME280;69653;52.674;13.574;2023-07-08T04:12:36;101261.78;;;16.80;58.54
80335;BME280;69653;52.674;13.574;2023-07-08T04:15:02;101251.00;;;17.21;56.97
80335;BME280;69653;52.674;13.574;2023-07-08T04:17:28;101275.09;;;17.76;55.90
80335;BME280;69653;52.674;13.574;2023-07-08T04:19:54;101250.16;;;17.93;54.75
80335;BME280;69653;52.674;13.574;2023-07-08T04:22:21;101242.97;;;17.92;54.86
80335;BME280;69653;52.674;13.574;2023-07-08T04:24:47;101246.81;;;18.08;54.29
80335;BME280;69653;52.674;13.574;2023-07-08T04:27:14;101275.56;;;18.45;53.59
80335;BME280;69653;52.674;13.574;2023-07-08T04:29:40;101282.81;;;18.58;53.44
80335;BME280;69653;52.674;13.574;2023-07-08T04:32:07;101274.88;;;18.57;53.46
80335;BME280;69653;52.674;13.574;2023-07-08T04:34:32;101246.13;;;18.61;52.78
80335;BME280;69653;52.674;13.574;2023-07-08T04:36:57;101259.78;;;18.66;52.98
80335;BME280;69653;52.674;13.574;2023-07-08T04:39:23;101276.94;;;18.80;52.94
80335;BME280;69653;52.674;13.574;2023-07-08T04:41:48;101251.59;;;18.70;52.89
80335;BME280;69653;52.674;13.574;2023-07-08T04:44:14;101256.28;;;18.78;53.07
80335;BME280;69653;52.674;13.574;2023-07-08T04:49:10;101246.19;;;18.73;53.22
80335;BME280;69653;52.674;13.574;2023-07-08T04:51:36;101236.50;;;18.67;53.53
80335;BME280;69653;52.674;13.574;2023-07-08T04:54:02;101242.09;;;18.79;53.41
80335;BME280;69653;52.674;13.574;2023-07-08T04:56:45;101268.13;;;18.99;53.77
80335;BME280;69653;52.674;13.574;2023-07-08T04:59:13;101268.13;;;19.20;53.68
80335;BME280;69653;52.674;13.574;2023-07-08T05:01:39;101266.50;;;19.19;53.79
80335;BME280;69653;52.674;13.574;2023-07-08T05:04:06;101247.16;;;19.10;53.68
80335;BME280;69653;52.674;13.574;2023-07-08T05:06:33;101256.38;;;19.35;53.27
80335;BME280;69653;52.674;13.574;2023-07-08T05:09:00;101270.91;;;19.53;53.00
80335;BME280;69653;52.674;13.574;2023-07-08T05:11:26;101272.31;;;19.71;53.20
80335;BME280;69653;52.674;13.574;2023-07-08T05:13:51;101267.94;;;19.82;53.23
80335;BME280;69653;52.674;13.574;2023-07-08T05:16:17;101247.91;;;19.89;52.80
80335;BME280;69653;52.674;13.574;2023-07-08T05:18:42;101273.84;;;20.29;52.11
80335;BME280;69653;52.674;13.574;2023-07-08T05:21:09;101251.28;;;20.30;51.85
80335;BME280;69653;52.674;13.574;2023-07-08T05:23:34;101255.00;;;20.35;51.42
80335;BME280;69653;52.674;13.574;2023-07-08T05:26:01;101274.72;;;20.69;51.37
80335;BME280;69653;52.674;13.574;2023-07-08T05:28:27;101268.66;;;20.79;50.92
80335;BME280;69653;52.674;13.574;2023-07-08T05:30:53;101273.69;;;21.02;49.99
80335;BME280;69653;52.674;13.574;2023-07-08T05:33:25;101259.38;;;21.15;49.70
80335;BME280;69653;52.674;13.574;2023-07-08T05:35:52;101265.34;;;21.29;49.27
80335;BME280;69653;52.674;13.574;2023-07-08T05:38:18;101258.47;;;21.39;49.67
80335;BME280;69653;52.674;13.574;2023-07-08T05:40:43;101239.25;;;21.34;49.08
80335;BME280;69653;52.674;13.574;2023-07-08T05:43:13;101267.03;;;21.62;49.27
80335;BME280;69653;52.674;13.574;2023-07-08T05:45:38;101261.72;;;21.88;49.00
80335;BME280;69653;52.674;13.574;2023-07-08T05:48:04;101257.69;;;22.01;48.83
80335;BME280;69653;52.674;13.574;2023-07-08T05:50:29;101258.28;;;22.26;47.99
80335;BME280;69653;52.674;13.574;2023-07-08T05:52:54;101262.31;;;22.44;47.05
80335;BME280;69653;52.674;13.574;2023-07-08T05:55:20;101246.50;;;22.33;46.72
80335;BME280;69653;52.674;13.574;2023-07-08T05:57:45;101261.94;;;22.65;45.75
80335;BME280;69653;52.674;13.574;2023-07-08T06:00:11;101266.25;;;22.97;46.52
80335;BME280;69653;52.674;13.574;2023-07-08T06:02:36;101263.91;;;22.99;45.74
80335;BME280;69653;52.674;13.574;2023-07-08T06:05:02;101254.03;;;23.25;45.79
80335;BME280;69653;52.674;13.574;2023-07-08T06:07:27;101283.56;;;23.45;45.00
80335;BME280;69653;52.674;13.574;2023-07-08T06:09:52;101269.53;;;23.64;44.58
80335;BME280;69653;52.674;13.574;2023-07-08T06:12:21;101294.31;;;24.11;44.11
80335;BME280;69653;52.674;13.574;2023-07-08T06:14:46;101254.41;;;23.88;43.87
80335;BME280;69653;52.674;13.574;2023-07-08T06:17:11;101269.25;;;24.14;43.49
80335;BME280;69653;52.674;13.574;2023-07-08T06:19:37;101268.66;;;24.28;42.97
80335;BME280;69653;52.674;13.574;2023-07-08T06:22:02;101260.97;;;24.48;42.07
80335;BME280;69653;52.674;13.574;2023-07-08T06:24:27;101260.88;;;24.71;42.13
80335;BME280;69653;52.674;13.574;2023-07-08T06:26:53;101286.09;;;25.04;42.63
80335;BME280;69653;52.674;13.574;2023-07-08T06:29:18;101274.72;;;25.20;41.87
80335;BME280;69653;52.674;13.574;2023-07-08T06:31:44;101276.91;;;25.40;40.95
80335;BME280;69653;52.674;13.574;2023-07-08T06:34:10;101286.09;;;25.74;40.61
80335;BME280;69653;52.674;13.574;2023-07-08T06:36:35;101275.63;;;25.68;40.35
80335;BME280;69653;52.674;13.574;2023-07-08T06:39:00;101275.19;;;25.66;40.47
80335;BME280;69653;52.674;13.574;2023-07-08T06:41:26;101274.00;;;25.67;39.90
80335;BME280;69653;52.674;13.574;2023-07-08T06:43:51;101275.59;;;26.12;39.93
80335;BME280;69653;52.674;13.574;2023-07-08T06:46:17;101303.81;;;26.33;38.87
80335;BME280;69653;52.674;13.574;2023-07-08T06:48:44;101282.56;;;26.28;39.11
80335;BME280;69653;52.674;13.574;2023-07-08T06:51:09;101274.28;;;26.46;38.63
80335;BME280;69653;52.674;13.574;2023-07-08T06:53:34;101268.97;;;26.34;38.64
80335;BME280;69653;52.674;13.574;2023-07-08T06:56:00;101303.66;;;26.73;38.41
80335;BME280;69653;52.674;13.574;2023-07-08T06:58:25;101271.88;;;26.48;39.35
80335;BME280;69653;52.674;13.574;2023-07-08T07:00:51;101275.59;;;26.70;38.64
80335;BME280;69653;52.674;13.574;2023-07-08T07:03:16;101291.34;;;26.85;38.58
80335;BME280;69653;52.674;13.574;2023-07-08T07:05:43;101268.41;;;26.69;38.79
80335;BME280;69653;52.674;13.574;2023-07-08T07:08:08;101282.38;;;26.65;38.07
80335;BME280;69653;52.674;13.574;2023-07-08T07:10:34;101289.03;;;27.05;38.41
80335;BME280;69653;52.674;13.574;2023-07-08T07:13:00;101277.03;;;27.18;37.58
80335;BME280;69653;52.674;13.574;2023-07-08T07:15:25;101300.69;;;27.17;38.11
80335;BME280;69653;52.674;13.574;2023-07-08T07:17:51;101281.16;;;27.45;37.51
80335;BME280;69653;52.674;13.574;2023-07-08T07:20:16;101269.94;;;27.63;37.11
80335;BME280;69653;52.674;13.574;2023-07-08T07:22:42;101288.41;;;27.57;37.22
80335;BME280;69653;52.674;13.574;2023-07-08T07:25:07;101295.69;;;28.08;36.71
80335;BME280;69653;52.674;13.574;2023-07-08T07:27:33;101298.88;;;28.45;35.74
80335;BME280;69653;52.674;13.574;2023-07-08T07:29:58;101282.34;;;28.75;35.17
80335;BME280;69653;52.674;13.574;2023-07-08T07:32:26;101285.47;;;28.99;35.03
80335;BME280;69653;52.674;13.574;2023-07-08T07:34:52;101266.84;;;29.19;34.86
80335;BME280;69653;52.674;13.574;2023-07-08T07:37:21;101277.78;;;29.10;33.92
80335;BME280;69653;52.674;13.574;2023-07-08T07:39:47;101293.38;;;29.32;33.68
80335;BME280;69653;52.674;13.574;2023-07-08T07:42:14;101294.94;;;29.40;33.23
80335;BME280;69653;52.674;13.574;2023-07-08T07:44:39;101286.88;;;29.42;33.32
80335;BME280;69653;52.674;13.574;2023-07-08T07:47:06;101270.75;;;29.46;33.15
80335;BME280;69653;52.674;13.574;2023-07-08T07:49:31;101294.00;;;30.16;32.69
80335;BME280;69653;52.674;13.574;2023-07-08T07:51:57;101284.22;;;30.27;31.23
80335;BME280;69653;52.674;13.574;2023-07-08T07:54:22;101289.56;;;30.59;30.92
80335;BME280;69653;52.674;13.574;2023-07-08T07:56:48;101266.06;;;30.69;30.98
80335;BME280;69653;52.674;13.574;2023-07-08T07:59:13;101262.44;;;30.69;29.61
80335;BME280;69653;52.674;13.574;2023-07-08T08:01:39;101288.38;;;30.91;29.44
80335;BME280;69653;52.674;13.574;2023-07-08T08:04:06;101293.41;;;30.76;29.72
80335;BME280;69653;52.674;13.574;2023-07-08T08:06:31;101272.69;;;30.56;28.62
80335;BME280;69653;52.674;13.574;2023-07-08T08:08:56;101271.47;;;30.87;27.97
80335;BME280;69653;52.674;13.574;2023-07-08T08:11:23;101280.41;;;30.86;28.27
80335;BME280;69653;52.674;13.574;2023-07-08T08:13:50;101289.84;;;30.68;28.70
80335;BME280;69653;52.674;13.574;2023-07-08T08:16:15;101274.75;;;30.52;28.31
80335;BME280;69653;52.674;13.574;2023-07-08T08:18:41;101283.59;;;30.50;28.57
80335;BME280;69653;52.674;13.574;2023-07-08T08:21:06;101289.09;;;31.02;26.39
80335;BME280;69653;52.674;13.574;2023-07-08T08:23:32;101258.81;;;31.33;26.62
80335;BME280;69653;52.674;13.574;2023-07-08T08:25:57;101276.22;;;31.58;24.09
80335;BME280;69653;52.674;13.574;2023-07-08T08:28:23;101267.94;;;31.70;23.68
80335;BME280;69653;52.674;13.574;2023-07-08T08:30:49;101302.94;;;32.30;25.29
80335;BME280;69653;52.674;13.574;2023-07-08T08:33:14;101302.28;;;31.96;25.59
80335;BME280;69653;52.674;13.574;2023-07-08T08:35:41;101276.66;;;31.80;24.21
80335;BME280;69653;52.674;13.574;2023-07-08T08:38:07;101280.50;;;32.39;23.57
80335;BME280;69653;52.674;13.574;2023-07-08T08:40:32;101280.00;;;31.98;24.57
80335;BME280;69653;52.674;13.574;2023-07-08T08:43:12;101301.59;;;32.58;23.85
80335;BME280;69653;52.674;13.574;2023-07-08T08:48:16;101278.63;;;33.15;23.21
80335;BME280;69653;52.674;13.574;2023-07-08T08:50:53;101300.31;;;33.02;22.46
80335;BME280;69653;52.674;13.574;2023-07-08T08:53:22;101266.91;;;33.13;22.35
80335;BME280;69653;52.674;13.574;2023-07-08T08:55:57;101302.50;;;33.34;21.45
80335;BME280;69653;52.674;13.574;2023-07-08T08:58:43;101267.19;;;32.99;22.99
80335;BME280;69653;52.674;13.574;2023-07-08T09:01:12;101285.56;;;33.30;22.06
80335;BME280;69653;52.674;13.574;2023-07-08T09:06:33;101278.41;;;33.78;21.52
80335;BME280;69653;52.674;13.574;2023-07-08T09:09:13;101275.47;;;33.97;20.84
80335;BME280;69653;52.674;13.574;2023-07-08T09:11:52;101300.38;;;34.06;21.52
80335;BME280;69653;52.674;13.574;2023-07-08T09:14:26;101274.03;;;33.73;21.11
80335;BME280;69653;52.674;13.574;2023-07-08T09:19:40;101270.94;;;33.84;20.79
80335;BME280;69653;52.674;13.574;2023-07-08T09:24:49;101286.19;;;34.06;21.32
80335;BME280;69653;52.674;13.574;2023-07-08T09:27:15;101283.16;;;34.29;20.48
80335;BME280;69653;52.674;13.574;2023-07-08T09:29:40;101263.16;;;34.49;20.19
80335;BME280;69653;52.674;13.574;2023-07-08T09:32:18;101262.44;;;34.61;19.48
80335;BME280;69653;52.674;13.574;2023-07-08T09:34:47;101267.44;;;34.41;18.74
80335;BME280;69653;52.674;13.574;2023-07-08T09:39:49;101279.72;;;34.22;18.81
80335;BME280;69653;52.674;13.574;2023-07-08T09:42:16;101263.28;;;34.45;18.73
80335;BME280;69653;52.674;13.574;2023-07-08T09:44:44;101262.97;;;34.27;18.71
80335;BME280;69653;52.674;13.574;2023-07-08T09:47:32;101277.31;;;34.04;19.24
80335;BME280;69653;52.674;13.574;2023-07-08T09:49:59;101279.53;;;33.96;20.14
80335;BME280;69653;52.674;13.574;2023-07-08T09:52:25;101273.63;;;33.91;19.54
80335;BME280;69653;52.674;13.574;2023-07-08T09:54:51;101263.50;;;34.22;17.37
80335;BME280;69653;52.674;13.574;2023-07-08T09:57:25;101256.84;;;34.57;17.75
80335;BME280;69653;52.674;13.574;2023-07-08T09:59:55;101278.66;;;34.89;17.05
80335;BME280;69653;52.674;13.574;2023-07-08T10:05:17;101285.47;;;34.92;17.17
80335;BME280;69653;52.674;13.574;2023-07-08T10:07:44;101279.94;;;35.01;17.44
80335;BME280;69653;52.674;13.574;2023-07-08T10:10:15;101266.28;;;34.83;16.30
80335;BME280;69653;52.674;13.574;2023-07-08T10:12:45;101265.81;;;35.14;17.16
80335;BME280;69653;52.674;13.574;2023-07-08T10:15:20;101260.78;;;35.30;16.52
80335;BME280;69653;52.674;13.574;2023-07-08T10:17:47;101284.94;;;35.51;17.12
80335;BME280;69653;52.674;13.574;2023-07-08T10:20:13;101277.97;;;35.52;17.30
80335;BME280;69653;52.674;13.574;2023-07-08T10:25:49;101278.44;;;35.50;16.58
80335;BME280;69653;52.674;13.574;2023-07-08T10:28:45;101259.31;;;35.38;17.81
80335;BME280;69653;52.674;13.574;2023-07-08T10:31:27;101276.38;;;35.26;16.69
80335;BME280;69653;52.674;13.574;2023-07-08T10:36:53;101271.53;;;35.77;17.13
80335;BME280;69653;52.674;13.574;2023-07-08T10:39:54;101269.91;;;35.63;17.10
80335;BME280;69653;52.674;13.574;2023-07-08T10:44:54;101261.19;;;35.03;18.10
80335;BME280;69653;52.674;13.574;2023-07-08T10:47:43;101262.41;;;34.32;18.83
80335;BME280;69653;52.674;13.574;2023-07-08T10:58:33;101257.59;;;35.16;17.18
80335;BME280;69653;52.674;13.574;2023-07-08T11:01:10;101223.09;;;35.01;17.59
80335;BME280;69653;52.674;13.574;2023-07-08T11:08:59;101232.94;;;34.42;17.40
80335;BME280;69653;52.674;13.574;2023-07-08T11:14:40;101247.34;;;34.35;18.34
80335;BME280;69653;52.674;13.574;2023-07-08T11:17:22;101235.72;;;34.30;19.20
80335;BME280;69653;52.674;13.574;2023-07-08T11:20:00;101221.03;;;33.86;18.81
80335;BME280;69653;52.674;13.574;2023-07-08T11:22:29;101214.78;;;34.24;17.46
80335;BME280;69653;52.674;13.574;2023-07-08T11:24:57;101215.56;;;34.82;16.86
80335;BME280;69653;52.674;13.574;2023-07-08T11:27:38;101236.56;;;35.13;16.05
80335;BME280;69653;52.674;13.574;2023-07-08T11:30:13;101227.59;;;35.27;16.84
80335;BME280;69653;52.674;13.574;2023-07-08T11:32:39;101220.41;;;35.23;15.99
80335;BME280;69653;52.674;13.574;2023-07-08T11:35:16;101208.78;;;35.04;18.06
80335;BME280;69653;52.674;13.574;2023-07-08T11:37:44;101199.50;;;35.17;15.72
80335;BME280;69653;52.674;13.574;2023-07-08T11:40:20;101222.41;;;34.97;17.17
80335;BME280;69653;52.674;13.574;2023-07-08T11:42:54;101191.63;;;35.08;16.19
80335;BME280;69653;52.674;13.574;2023-07-08T11:45:30;101221.44;;;35.29;16.80
80335;BME280;69653;52.674;13.574;2023-07-08T11:48:04;101207.53;;;35.05;16.48
80335;BME280;69653;52.674;13.574;2023-07-08T11:50:37;101202.66;;;35.06;16.18
80335;BME280;69653;52.674;13.574;2023-07-08T11:53:13;101187.13;;;34.69;15.69
80335;BME280;69653;52.674;13.574;2023-07-08T11:55:59;101184.44;;;34.49;17.40
80335;BME280;69653;52.674;13.574;2023-07-08T11:58:28;101208.78;;;33.89;19.54
80335;BME280;69653;52.674;13.574;2023-07-08T12:03:49;101199.75;;;33.94;18.74
80335;BME280;69653;52.674;13.574;2023-07-08T12:08:53;101189.75;;;34.64;17.03
80335;BME280;69653;52.674;13.574;2023-07-08T12:11:18;101174.00;;;34.46;16.42
80335;BME280;69653;52.674;13.574;2023-07-08T12:13:44;101193.44;;;34.61;16.51
80335;BME280;69653;52.674;13.574;2023-07-08T12:16:12;101197.66;;;34.27;17.45
80335;BME280;69653;52.674;13.574;2023-07-08T12:18:39;101171.16;;;34.46;17.04
80335;BME280;69653;52.674;13.574;2023-07-08T12:21:11;101174.00;;;34.46;17.39
80335;BME280;69653;52.674;13.574;2023-07-08T12:23:44;101197.25;;;34.41;18.24
80335;BME280;69653;52.674;13.574;2023-07-08T12:26:10;101180.22;;;34.41;18.27
80335;BME280;69653;52.674;13.574;2023-07-08T12:28:37;101156.41;;;34.23;18.03
80335;BME280;69653;52.674;13.574;2023-07-08T12:31:10;101188.19;;;34.46;17.99
80335;BME280;69653;52.674;13.574;2023-07-08T12:33:38;101155.56;;;34.38;17.77
80335;BME280;69653;52.674;13.574;2023-07-08T12:36:05;101171.16;;;34.46;18.05
80335;BME280;69653;52.674;13.574;2023-07-08T12:38:37;101176.34;;;34.35;18.79
80335;BME280;69653;52.674;13.574;2023-07-08T12:41:09;101163.69;;;33.79;18.26
80335;BME280;69653;52.674;13.574;2023-07-08T12:43:35;101156.16;;;33.40;18.93
80335;BME280;69653;52.674;13.574;2023-07-08T12:46:00;101154.63;;;33.51;18.57
80335;BME280;69653;52.674;13.574;2023-07-08T12:48:31;101153.03;;;33.83;17.96
80335;BME280;69653;52.674;13.574;2023-07-08T12:50:56;101170.63;;;34.06;17.46
80335;BME280;69653;52.674;13.574;2023-07-08T12:53:22;101170.66;;;34.35;17.41
80335;BME280;69653;52.674;13.574;2023-07-08T12:55:49;101168.81;;;34.29;17.11
80335;BME280;69653;52.674;13.574;2023-07-08T12:58:28;101134.16;;;33.76;17.33
80335;BME280;69653;52.674;13.574;2023-07-08T13:00:55;101157.47;;;33.84;18.49
80335;BME280;69653;52.674;13.574;2023-07-08T13:03:24;101162.00;;;33.65;18.98
80335;BME280;69653;52.674;13.574;2023-07-08T13:05:52;101147.78;;;33.16;18.45
80335;BME280;69653;52.674;13.574;2023-07-08T13:08:24;101138.81;;;33.02;17.97
80335;BME280;69653;52.674;13.574;2023-07-08T13:10:53;101162.72;;;33.53;17.51
80335;BME280;69653;52.674;13.574;2023-07-08T13:13:28;101159.44;;;33.71;17.25
80335;BME280;69653;52.674;13.574;2023-07-08T13:15:54;101131.09;;;33.02;17.68
80335;BME280;69653;52.674;13.574;2023-07-08T13:18:30;101134.44;;;33.17;17.55
80335;BME280;69653;52.674;13.574;2023-07-08T13:20:56;101154.28;;;33.49;17.11
80335;BME280;69653;52.674;13.574;2023-07-08T13:23:23;101119.22;;;33.27;17.61
80335;BME280;69653;52.674;13.574;2023-07-08T13:25:52;101144.91;;;33.52;17.48
80335;BME280;69653;52.674;13.574;2023-07-08T13:28:26;101138.97;;;33.63;17.85
80335;BME280;69653;52.674;13.574;2023-07-08T13:30:56;101140.13;;;33.66;17.58
80335;BME280;69653;52.674;13.574;2023-07-08T13:33:23;101129.28;;;33.60;17.70
80335;BME280;69653;52.674;13.574;2023-07-08T13:35:50;101120.09;;;33.56;17.65
80335;BME280;69653;52.674;13.574;2023-07-08T13:38:19;101117.25;;;33.56;18.36